This is the latest recevied weather packets stored in our database for station/object K0BL. If no packets are shown the sender has not sent any weather packets the latest 10 day(s).
| Time | Temp. | Humidity | Pressure | Rain* | Wind** | Luminosity | Snow |
|---|---|---|---|---|---|---|---|
| 1777452143 | 9.44° C | 70% | 1014.9 hPa | 0 mm | - | 0 W/m² | - |
| 1777451540 | 9.44° C | 70% | 1015.1 hPa | 0 mm | - | 0 W/m² | - |
| 1777442830 | 10.56° C | 71% | 1014.7 hPa | 0 mm | - | 0 W/m² | - |
| 1777435868 | 10.56° C | 76% | 1013.8 hPa | 0 mm | - | 0 W/m² | - |
| 1777427455 | 11.11° C | 70% | 1012.8 hPa | 0.25 mm | - | 0 W/m² | - |
| 1777423850 | 13.33° C | 62% | 1013 hPa | 0 mm | - | 0 W/m² | - |
| 1777421450 | 13.89° C | 58% | 1012.7 hPa | 0 mm | - | 43 W/m² | - |
| 1777420845 | 14.44° C | 58% | 1012.8 hPa | 0 mm | - | 41 W/m² | - |
| 1777419946 | 15° C | 54% | 1012.7 hPa | 0 mm | - | 66 W/m² | - |
| 1777417832 | 16.11° C | 50% | 1012.6 hPa | 0 mm | - | 94 W/m² | - |
| 1777416019 | 16.67° C | 49% | 1012.6 hPa | 0 mm | - | 144 W/m² | - |
| 1777415416 | 16.67° C | 52% | 1012.5 hPa | 0 mm | - | 194 W/m² | - |
| 1777414816 | 16.67° C | 51% | 1012.6 hPa | 0 mm | - | 205 W/m² | - |
| 1777413617 | 16.67° C | 52% | 1012.5 hPa | 0 mm | - | 216 W/m² | - |
| 1777413014 | 17.22° C | 51% | 1012.7 hPa | 0 mm | - | 226 W/m² | - |
| 1777411508 | 17.22° C | 52% | 1012.5 hPa | 0 mm | - | 230 W/m² | - |
| 1777410009 | 18.33° C | 49% | 1011.9 hPa | 0 mm | - | 612 W/m² | - |
| 1777409708 | 17.78° C | 51% | 1012.1 hPa | 0 mm | - | 692 W/m² | - |
| 1777409106 | 17.22° C | 51% | 1012.3 hPa | 0 mm | - | 658 W/m² | - |
| 1777407303 | 18.33° C | 50% | 1012.4 hPa | 0 mm | - | 751 W/m² | - |
| 1777404299 | 17.22° C | 52% | 1013 hPa | 0 mm | - | 668 W/m² | - |
| 1777398284 | 15° C | 57% | 1014.9 hPa | 0 mm | - | 940 W/m² | - |
| 1777394973 | 15° C | 59% | 1015.4 hPa | 0 mm | - | 676 W/m² | - |
| 1777394073 | 15° C | 57% | 1015.6 hPa | 0 mm | - | 694 W/m² | - |
| 1777389558 | 12.78° C | 66% | 1015.9 hPa | 0 mm | - | 682 W/m² | - |
* Rain latest hour (hover to see other rain measurements)
** Current wind speed in m/s (hover to see current wind gust speed)